createdAt,value
2022-12-12T00:02:10.861Z,-4.90
2022-12-12T00:04:37.844Z,-4.90
2022-12-12T00:07:04.780Z,-4.80
2022-12-12T00:09:31.574Z,-4.80
2022-12-12T00:11:58.465Z,-4.80
2022-12-12T00:14:25.266Z,-4.80
2022-12-12T00:16:52.164Z,-4.80
2022-12-12T00:19:19.047Z,-4.90
2022-12-12T00:21:46.038Z,-4.90
2022-12-12T00:24:13.093Z,-4.90
2022-12-12T00:26:39.900Z,-4.90
2022-12-12T00:29:07.194Z,-4.90
2022-12-12T00:31:34.272Z,-4.90
2022-12-12T00:34:01.206Z,-4.90
2022-12-12T00:36:30.187Z,-5.00
2022-12-12T00:38:57.513Z,-5.00
2022-12-12T00:41:25.029Z,-5.00
2022-12-12T00:43:51.915Z,-5.00
2022-12-12T00:46:23.946Z,-5.10
2022-12-12T00:48:54.649Z,-5.20
2022-12-12T00:51:23.514Z,-5.10
2022-12-12T00:53:51.134Z,-5.20
2022-12-12T00:56:20.014Z,-5.20
2022-12-12T00:58:47.376Z,-5.10
2022-12-12T01:01:17.499Z,-5.10
2022-12-12T01:03:44.794Z,-5.10
2022-12-12T01:06:12.326Z,-5.10
2022-12-12T01:08:39.513Z,-5.10
2022-12-12T01:11:07.825Z,-5.20
2022-12-12T01:13:35.227Z,-5.20
2022-12-12T01:16:02.724Z,-5.20
2022-12-12T01:18:29.582Z,-5.20
2022-12-12T01:20:56.573Z,-5.20
2022-12-12T01:23:23.420Z,-5.20
2022-12-12T01:25:50.291Z,-5.10
2022-12-12T01:28:17.056Z,-5.10
2022-12-12T01:30:43.865Z,-5.10
2022-12-12T01:33:10.654Z,-5.10
2022-12-12T01:35:37.523Z,-5.10
2022-12-12T01:38:04.301Z,-5.10
2022-12-12T01:40:31.675Z,-5.10
2022-12-12T01:42:59.931Z,-5.10
2022-12-12T01:46:14.996Z,-5.10
2022-12-12T01:48:47.647Z,-5.10
2022-12-12T01:51:22.298Z,-5.10
2022-12-12T01:53:53.346Z,-5.10
2022-12-12T01:56:21.694Z,-5.10
2022-12-12T01:58:52.876Z,-5.10
2022-12-12T02:01:21.000Z,-5.10
2022-12-12T02:03:49.729Z,-5.00
2022-12-12T02:06:22.390Z,-5.00
2022-12-12T02:08:51.413Z,-5.00
2022-12-12T02:11:18.256Z,-5.00
2022-12-12T02:13:45.791Z,-5.00
2022-12-12T02:16:33.572Z,-5.00
2022-12-12T02:19:28.824Z,-5.00
2022-12-12T02:22:25.557Z,-5.00
2022-12-12T02:25:01.608Z,-5.00
2022-12-12T02:27:59.603Z,-5.00
2022-12-12T02:30:55.531Z,-5.00
2022-12-12T02:33:36.952Z,-5.00
2022-12-12T02:36:29.033Z,-5.00
2022-12-12T02:39:10.901Z,-5.00
2022-12-12T02:41:56.053Z,-5.00
2022-12-12T02:44:33.412Z,-5.10
2022-12-12T02:47:25.343Z,-5.10
2022-12-12T02:50:01.356Z,-5.20
2022-12-12T02:52:28.565Z,-5.30
2022-12-12T02:54:55.665Z,-5.30
2022-12-12T02:57:24.868Z,-5.30
2022-12-12T03:00:04.358Z,-5.40
2022-12-12T03:02:40.388Z,-5.40
2022-12-12T03:06:01.088Z,-5.50
2022-12-12T03:08:54.992Z,-5.50
2022-12-12T03:11:45.237Z,-5.60
2022-12-12T03:14:35.228Z,-5.70
2022-12-12T03:17:17.928Z,-5.80
2022-12-12T03:19:53.467Z,-5.80
2022-12-12T03:22:43.620Z,-5.80
2022-12-12T03:25:26.140Z,-6.00
2022-12-12T03:28:01.926Z,-5.90
2022-12-12T03:30:33.415Z,-6.00
2022-12-12T03:33:25.656Z,-6.10
2022-12-12T03:36:06.865Z,-6.10
2022-12-12T03:38:38.287Z,-6.10
2022-12-12T03:41:11.431Z,-6.20
2022-12-12T03:43:44.927Z,-6.20
2022-12-12T03:46:11.828Z,-6.20
2022-12-12T03:48:42.351Z,-6.30
2022-12-12T03:51:17.498Z,-6.30
2022-12-12T03:54:07.862Z,-6.40
2022-12-12T03:56:43.790Z,-6.40
2022-12-12T03:59:26.945Z,-6.40
2022-12-12T04:02:00.167Z,-6.50
2022-12-12T04:04:38.879Z,-6.60
2022-12-12T04:07:24.634Z,-6.60
2022-12-12T04:10:10.660Z,-6.60
2022-12-12T04:13:00.835Z,-6.60
2022-12-12T04:15:30.833Z,-6.60
2022-12-12T04:18:19.391Z,-6.50
2022-12-12T04:21:23.780Z,-6.50
2022-12-12T04:24:15.107Z,-6.60
2022-12-12T04:26:51.418Z,-6.60
2022-12-12T04:29:28.133Z,-6.60
2022-12-12T04:32:04.179Z,-6.50
2022-12-12T04:34:47.438Z,-6.50
2022-12-12T04:37:20.712Z,-6.60
2022-12-12T04:39:50.854Z,-6.60
2022-12-12T04:42:22.335Z,-6.60
2022-12-12T04:44:52.604Z,-6.60
2022-12-12T04:47:20.473Z,-6.50
2022-12-12T04:49:49.979Z,-6.50
2022-12-12T04:52:20.411Z,-6.40
2022-12-12T04:55:05.515Z,-6.40
2022-12-12T04:57:45.620Z,-6.40
2022-12-12T05:00:14.311Z,-6.40
2022-12-12T05:02:46.715Z,-6.40
2022-12-12T05:05:25.203Z,-6.40
2022-12-12T05:08:07.937Z,-6.40
2022-12-12T05:13:30.438Z,-6.30
2022-12-12T05:15:58.704Z,-6.30
2022-12-12T05:18:25.520Z,-6.30
2022-12-12T05:20:52.432Z,-6.30
2022-12-12T05:23:19.438Z,-6.40
2022-12-12T05:25:46.272Z,-6.30
2022-12-12T05:28:13.202Z,-6.30
2022-12-12T05:30:40.195Z,-6.30
2022-12-12T05:33:07.012Z,-6.30
2022-12-12T05:35:34.168Z,-6.20
2022-12-12T05:38:04.092Z,-6.20
2022-12-12T05:40:30.952Z,-6.20
2022-12-12T05:42:57.812Z,-6.20
2022-12-12T05:45:24.619Z,-6.10
2022-12-12T05:47:51.466Z,-6.10
2022-12-12T05:50:18.301Z,-6.10
2022-12-12T05:52:45.215Z,-6.10
2022-12-12T05:55:12.346Z,-6.10
2022-12-12T05:57:39.352Z,-6.00
2022-12-12T06:00:07.123Z,-6.10
2022-12-12T06:02:33.995Z,-6.10
2022-12-12T06:05:01.350Z,-6.10
2022-12-12T06:07:28.152Z,-6.10
2022-12-12T06:09:55.951Z,-6.00
2022-12-12T06:12:23.096Z,-6.00
2022-12-12T06:14:49.861Z,-6.00
2022-12-12T06:17:16.723Z,-6.00
2022-12-12T06:19:43.528Z,-6.00
2022-12-12T06:22:10.381Z,-6.00
2022-12-12T06:24:37.272Z,-6.00
2022-12-12T06:27:04.154Z,-6.00
2022-12-12T06:29:30.943Z,-6.00
2022-12-12T06:31:57.823Z,-6.10
2022-12-12T06:34:24.657Z,-6.00
2022-12-12T06:36:51.758Z,-6.00
2022-12-12T06:39:18.681Z,-5.90
2022-12-12T06:41:45.629Z,-5.90
2022-12-12T06:44:12.444Z,-5.90
2022-12-12T06:46:39.829Z,-5.90
2022-12-12T06:49:09.824Z,-5.90
2022-12-12T06:51:43.961Z,-5.80
2022-12-12T06:54:13.359Z,-5.80
2022-12-12T06:56:44.792Z,-5.80
2022-12-12T06:59:15.554Z,-5.70
2022-12-12T07:01:42.456Z,-5.70
2022-12-12T07:04:11.810Z,-5.70
2022-12-12T07:06:38.673Z,-5.70
2022-12-12T07:09:05.598Z,-5.70
2022-12-12T07:11:32.469Z,-5.70
2022-12-12T07:14:00.061Z,-5.70
2022-12-12T07:16:27.612Z,-5.70
2022-12-12T07:18:54.482Z,-5.70
2022-12-12T07:21:21.951Z,-5.70
2022-12-12T07:23:49.070Z,-5.80
2022-12-12T07:26:19.529Z,-5.80
2022-12-12T07:28:46.769Z,-5.90
2022-12-12T07:31:16.971Z,-5.90
2022-12-12T07:33:44.763Z,-5.90
2022-12-12T07:36:13.478Z,-6.00
2022-12-12T07:38:40.400Z,-6.00
2022-12-12T07:41:10.307Z,-6.00
2022-12-12T07:43:43.083Z,-6.10
2022-12-12T07:46:32.489Z,-6.10
2022-12-12T07:48:59.353Z,-6.10
2022-12-12T07:51:26.191Z,-6.10
2022-12-12T07:53:52.983Z,-6.20
2022-12-12T07:56:20.469Z,-6.10
2022-12-12T07:58:47.698Z,-6.10
2022-12-12T08:01:20.509Z,-6.10
2022-12-12T08:03:50.846Z,-6.10
2022-12-12T08:06:18.765Z,-6.10
2022-12-12T08:08:48.447Z,-6.00
2022-12-12T08:11:17.878Z,-6.00
2022-12-12T08:13:44.879Z,-6.00
2022-12-12T08:16:17.751Z,-5.90
2022-12-12T08:18:45.199Z,-5.90
2022-12-12T08:21:14.218Z,-5.90
2022-12-12T08:23:41.419Z,-5.90
2022-12-12T08:26:14.821Z,-5.80
2022-12-12T08:28:44.817Z,-5.80
2022-12-12T08:31:13.942Z,-5.80
2022-12-12T08:33:40.945Z,-5.70
2022-12-12T08:36:12.814Z,-5.70
2022-12-12T08:38:39.733Z,-5.60
2022-12-12T08:41:06.756Z,-5.60
2022-12-12T08:43:33.587Z,-5.50
2022-12-12T08:46:01.778Z,-5.50
2022-12-12T08:48:28.994Z,-5.40
2022-12-12T08:50:55.803Z,-5.40
2022-12-12T08:53:23.553Z,-5.40
2022-12-12T08:55:50.386Z,-5.30
2022-12-12T08:58:17.194Z,-5.30
2022-12-12T09:00:44.255Z,-5.20
2022-12-12T09:03:11.114Z,-5.10
2022-12-12T09:05:42.612Z,-5.10
2022-12-12T09:08:09.468Z,-5.00
2022-12-12T09:10:36.385Z,-4.90
2022-12-12T09:13:03.238Z,-4.80
2022-12-12T09:15:30.073Z,-4.70
2022-12-12T09:17:56.852Z,-4.70
2022-12-12T09:20:23.816Z,-4.60
2022-12-12T09:22:50.681Z,-4.60
2022-12-12T09:25:17.647Z,-4.50
2022-12-12T09:27:44.438Z,-4.50
2022-12-12T09:30:11.658Z,-4.40
2022-12-12T09:32:38.449Z,-4.40
2022-12-12T09:35:05.778Z,-4.30
2022-12-12T09:37:32.582Z,-4.30
2022-12-12T09:39:59.459Z,-4.20
2022-12-12T09:42:32.256Z,-4.10
2022-12-12T09:45:03.837Z,-4.00
2022-12-12T09:47:46.885Z,-3.90
2022-12-12T09:50:21.957Z,-3.80
2022-12-12T09:52:49.142Z,-3.70
2022-12-12T09:55:35.839Z,-3.60
2022-12-12T09:58:18.732Z,-3.50
2022-12-12T10:01:02.718Z,-3.40
2022-12-12T10:03:49.804Z,-3.30
2022-12-12T10:09:42.040Z,-3.20
2022-12-12T10:12:14.816Z,-3.10
2022-12-12T10:14:48.861Z,-3.10
2022-12-12T10:17:20.452Z,-3.00
2022-12-12T10:19:54.026Z,-2.90
2022-12-12T10:22:37.113Z,-2.80
2022-12-12T10:25:20.337Z,-2.80
2022-12-12T10:27:51.118Z,-2.80
2022-12-12T10:30:20.554Z,-2.70
2022-12-12T10:32:56.516Z,-2.70
2022-12-12T10:35:49.484Z,-2.70
2022-12-12T10:38:27.430Z,-2.60
2022-12-12T10:41:06.126Z,-2.60
2022-12-12T10:43:59.039Z,-2.60
2022-12-12T10:46:36.521Z,-2.60
2022-12-12T10:49:15.084Z,-2.50
2022-12-12T10:51:44.726Z,-2.50
2022-12-12T10:54:42.696Z,-2.40
2022-12-12T10:57:34.692Z,-2.30
2022-12-12T11:00:26.460Z,-2.30
2022-12-12T11:03:00.214Z,-2.20
2022-12-12T11:05:30.285Z,-2.20
2022-12-12T11:08:25.358Z,-2.20
2022-12-12T11:11:02.746Z,-2.10
2022-12-12T11:13:30.662Z,-2.00
2022-12-12T11:16:12.942Z,-1.90
2022-12-12T11:18:40.274Z,-1.90
2022-12-12T11:21:10.662Z,-1.80
2022-12-12T11:23:41.690Z,-1.80
2022-12-12T11:26:14.760Z,-1.70
2022-12-12T11:28:44.266Z,-1.70
2022-12-12T11:31:16.752Z,-1.60
2022-12-12T11:33:54.696Z,-1.50
2022-12-12T11:36:42.309Z,-1.50
2022-12-12T11:39:25.097Z,-1.50
2022-12-12T11:42:12.995Z,-1.40
2022-12-12T11:44:41.447Z,-1.40
2022-12-12T11:47:28.144Z,-1.30
2022-12-12T11:49:59.786Z,-1.20
2022-12-12T11:52:30.531Z,-1.20
2022-12-12T11:54:58.455Z,-1.10
2022-12-12T11:57:47.427Z,-1.00
2022-12-12T12:00:20.026Z,-1.00
2022-12-12T12:02:50.179Z,-1.00
2022-12-12T12:05:35.877Z,-0.90
2022-12-12T12:08:02.970Z,-0.90
2022-12-12T12:10:41.975Z,-0.90
2022-12-12T12:13:26.916Z,-0.90
2022-12-12T12:16:41.778Z,-0.80
2022-12-12T12:19:47.433Z,-0.70
2022-12-12T12:22:21.992Z,-0.70
2022-12-12T12:24:59.408Z,-0.70
2022-12-12T12:27:41.393Z,-0.70
2022-12-12T12:30:21.439Z,-0.60
2022-12-12T12:33:20.532Z,-0.60
2022-12-12T12:36:20.921Z,-0.50
2022-12-12T12:39:10.483Z,-0.40
2022-12-12T12:41:43.249Z,-0.40
2022-12-12T12:44:19.990Z,-0.30
2022-12-12T12:46:58.177Z,-0.30
2022-12-12T12:49:47.210Z,-0.30
2022-12-12T12:52:39.068Z,-0.30
2022-12-12T12:55:14.848Z,-0.20
2022-12-12T12:57:45.255Z,-0.20
2022-12-12T13:00:17.162Z,-0.30
2022-12-12T13:02:59.498Z,-0.30
2022-12-12T13:05:35.613Z,-0.30
2022-12-12T13:08:23.782Z,-0.30
2022-12-12T13:10:54.384Z,-0.30
2022-12-12T13:13:29.027Z,-0.20
2022-12-12T13:16:08.563Z,-0.20
2022-12-12T13:18:52.415Z,-0.20
2022-12-12T13:21:47.479Z,-0.10
2022-12-12T13:24:46.181Z,0.10
2022-12-12T13:27:24.414Z,0.00
2022-12-12T13:30:14.738Z,0.10
2022-12-12T13:32:47.828Z,0.10
2022-12-12T13:35:22.685Z,0.20
2022-12-12T13:37:53.993Z,0.30
2022-12-12T13:40:33.949Z,0.40
2022-12-12T13:43:10.068Z,0.40
2022-12-12T13:45:41.080Z,0.40
2022-12-12T13:48:37.474Z,0.50
2022-12-12T13:51:35.489Z,0.60
2022-12-12T13:54:14.363Z,0.70
2022-12-12T13:56:43.197Z,0.70
2022-12-12T13:59:22.523Z,0.80
2022-12-12T14:01:59.612Z,0.80
2022-12-12T14:04:35.455Z,0.80
2022-12-12T14:07:02.325Z,0.70
2022-12-12T14:09:48.118Z,0.60
2022-12-12T14:12:31.799Z,0.40
2022-12-12T14:15:22.545Z,0.40
2022-12-12T14:17:56.591Z,0.20
2022-12-12T14:20:36.503Z,0.10
2022-12-12T14:23:07.815Z,0.10
2022-12-12T14:25:41.377Z,0.10
2022-12-12T14:28:34.584Z,0.00
2022-12-12T14:31:17.636Z,-0.10
2022-12-12T14:34:38.415Z,-0.10
2022-12-12T14:37:35.619Z,-0.20
2022-12-12T14:40:18.650Z,-0.20
2022-12-12T14:43:19.832Z,-0.30
2022-12-12T14:46:00.414Z,-0.40
2022-12-12T14:48:35.363Z,-0.50
2022-12-12T14:51:06.009Z,-0.40
2022-12-12T14:53:39.010Z,-0.40
2022-12-12T14:56:36.197Z,-0.50
2022-12-12T14:59:16.771Z,-0.60
2022-12-12T15:01:59.713Z,-0.60
2022-12-12T15:04:30.180Z,-0.70
2022-12-12T15:07:01.530Z,-0.80
2022-12-12T15:09:37.119Z,-0.90
2022-12-12T15:12:10.196Z,-1.00
2022-12-12T15:14:39.287Z,-1.00
2022-12-12T15:17:22.732Z,-1.10
2022-12-12T15:19:54.079Z,-1.10
2022-12-12T15:22:38.158Z,-1.20
2022-12-12T15:25:16.240Z,-1.30
2022-12-12T15:27:52.191Z,-1.30
2022-12-12T15:30:44.850Z,-1.40
2022-12-12T15:33:29.884Z,-1.60
2022-12-12T15:36:07.520Z,-1.70
2022-12-12T15:38:34.663Z,-1.80
2022-12-12T15:41:09.584Z,-1.90
2022-12-12T15:43:41.144Z,-2.00
2022-12-12T15:46:14.508Z,-2.00
2022-12-12T15:48:46.597Z,-2.20
2022-12-12T15:51:19.676Z,-2.20
2022-12-12T15:53:52.254Z,-2.30
2022-12-12T15:56:22.115Z,-2.40
2022-12-12T15:58:52.685Z,-2.40
2022-12-12T16:01:22.169Z,-2.40
2022-12-12T16:04:01.344Z,-2.50
2022-12-12T16:06:35.723Z,-2.50
2022-12-12T16:09:19.996Z,-2.60
2022-12-12T16:11:54.110Z,-2.70
2022-12-12T16:14:39.714Z,-2.70
2022-12-12T16:17:21.575Z,-2.70
2022-12-12T16:19:58.358Z,-2.80
2022-12-12T16:22:48.029Z,-2.80
2022-12-12T16:25:25.852Z,-2.80
2022-12-12T16:28:10.107Z,-2.90
2022-12-12T16:30:42.281Z,-2.90
2022-12-12T16:33:12.373Z,-3.00
2022-12-12T16:35:39.190Z,-3.00
2022-12-12T16:38:17.052Z,-3.10
2022-12-12T16:40:46.312Z,-3.20
2022-12-12T16:43:15.722Z,-3.30
2022-12-12T16:45:42.772Z,-3.30
2022-12-12T16:48:15.554Z,-3.40
2022-12-12T16:50:42.916Z,-3.40
2022-12-12T16:53:10.152Z,-3.50
2022-12-12T16:55:43.647Z,-3.50
2022-12-12T16:58:10.758Z,-3.60
2022-12-12T17:00:38.442Z,-3.60
2022-12-12T17:03:06.024Z,-3.60
2022-12-12T17:05:35.217Z,-3.70
2022-12-12T17:08:02.789Z,-3.70
2022-12-12T17:10:31.583Z,-3.70
2022-12-12T17:12:58.593Z,-3.70
2022-12-12T17:15:31.043Z,-3.70
2022-12-12T17:17:58.232Z,-3.80
2022-12-12T17:20:26.153Z,-3.80
2022-12-12T17:22:52.976Z,-3.90
2022-12-12T17:25:21.530Z,-3.90
2022-12-12T17:27:49.124Z,-4.00
2022-12-12T17:30:16.562Z,-4.00
2022-12-12T17:32:43.743Z,-4.10
2022-12-12T17:35:10.758Z,-4.10
2022-12-12T17:37:38.254Z,-4.10
2022-12-12T17:40:07.227Z,-4.10
2022-12-12T17:42:34.201Z,-4.10
2022-12-12T17:45:01.015Z,-4.20
2022-12-12T17:47:27.848Z,-4.20
2022-12-12T17:49:54.671Z,-4.30
2022-12-12T17:52:21.480Z,-4.30
2022-12-12T17:55:54.532Z,-4.40
2022-12-12T17:57:36.143Z,-4.40
2022-12-12T18:00:04.567Z,-4.40
2022-12-12T18:02:32.003Z,-4.50
2022-12-12T18:04:58.834Z,-4.50
2022-12-12T18:07:25.748Z,-4.50
2022-12-12T18:09:52.510Z,-4.50
2022-12-12T18:12:19.366Z,-4.50
2022-12-12T18:14:46.251Z,-4.60
2022-12-12T18:17:13.058Z,-4.60
2022-12-12T18:19:39.811Z,-4.70
2022-12-12T18:22:06.608Z,-4.70
2022-12-12T18:24:33.571Z,-4.80
2022-12-12T18:27:01.366Z,-4.80
2022-12-12T18:29:28.400Z,-4.90
2022-12-12T18:31:55.666Z,-4.90
2022-12-12T18:34:22.535Z,-4.90
2022-12-12T18:36:49.910Z,-5.00
2022-12-12T18:39:17.005Z,-5.00
2022-12-12T18:41:43.991Z,-5.00
2022-12-12T18:44:14.067Z,-5.10
2022-12-12T18:46:43.469Z,-5.20
2022-12-12T18:49:14.963Z,-5.10
2022-12-12T18:51:42.470Z,-5.10
2022-12-12T18:54:15.080Z,-5.10
2022-12-12T18:56:44.467Z,-5.20
2022-12-12T18:59:11.356Z,-5.20
2022-12-12T19:01:38.815Z,-5.20
2022-12-12T19:04:11.732Z,-5.20
2022-12-12T19:06:41.096Z,-5.30
2022-12-12T19:09:12.060Z,-5.30
2022-12-12T19:11:38.946Z,-5.30
2022-12-12T19:14:08.015Z,-5.40
2022-12-12T19:16:34.907Z,-5.40
2022-12-12T19:19:05.030Z,-5.40
2022-12-12T19:21:33.783Z,-5.40
2022-12-12T19:24:02.877Z,-5.40
2022-12-12T19:26:30.521Z,-5.40
2022-12-12T19:29:09.878Z,-5.40
2022-12-12T19:31:37.600Z,-5.50
2022-12-12T19:34:06.234Z,-5.50
2022-12-12T19:36:33.351Z,-5.50
2022-12-12T19:39:01.178Z,-5.60
2022-12-12T19:41:29.061Z,-5.60
2022-12-12T19:43:58.771Z,-5.60
2022-12-12T19:46:27.419Z,-5.60
2022-12-12T19:48:56.384Z,-5.60
2022-12-12T19:51:24.602Z,-5.60
2022-12-12T19:53:56.458Z,-5.70
2022-12-12T19:56:30.270Z,-5.70
2022-12-12T19:58:57.915Z,-5.70
2022-12-12T20:01:28.606Z,-5.70
2022-12-12T20:03:57.746Z,-5.80
2022-12-12T20:06:25.836Z,-5.80
2022-12-12T20:08:52.739Z,-5.80
2022-12-12T20:11:23.651Z,-5.80
2022-12-12T20:13:53.555Z,-5.80
2022-12-12T20:16:22.982Z,-5.80
2022-12-12T20:18:50.748Z,-5.80
2022-12-12T20:21:43.573Z,-5.90
2022-12-12T20:24:08.101Z,-5.80
2022-12-12T20:26:35.264Z,-5.90
2022-12-12T20:29:03.225Z,-5.90
2022-12-12T20:31:33.406Z,-5.90
2022-12-12T20:34:00.836Z,-6.00
2022-12-12T20:36:30.188Z,-6.00
2022-12-12T20:38:58.602Z,-6.00
2022-12-12T20:41:28.079Z,-6.00
2022-12-12T20:43:56.521Z,-6.10
2022-12-12T20:46:27.084Z,-6.00
2022-12-12T20:48:54.238Z,-6.00
2022-12-12T20:51:53.587Z,-6.10
2022-12-12T20:54:08.644Z,-6.10
2022-12-12T20:56:35.856Z,-6.20
2022-12-12T20:59:04.233Z,-6.30
2022-12-12T21:01:33.711Z,-6.30
2022-12-12T21:04:01.436Z,-6.40
2022-12-12T21:06:33.830Z,-6.40
2022-12-12T21:09:03.202Z,-6.40
2022-12-12T21:11:30.125Z,-6.50
2022-12-12T21:13:57.067Z,-6.50
2022-12-12T21:16:31.164Z,-6.50
2022-12-12T21:19:04.962Z,-6.60
2022-12-12T21:21:31.877Z,-6.60
2022-12-12T21:23:59.072Z,-6.60
2022-12-12T21:26:29.384Z,-6.70
2022-12-12T21:28:57.518Z,-6.70
2022-12-12T21:31:27.237Z,-6.70
2022-12-12T21:33:54.658Z,-6.70
2022-12-12T21:36:23.806Z,-6.70
2022-12-12T21:38:52.017Z,-6.70
2022-12-12T21:41:21.823Z,-6.80
2022-12-12T21:43:49.197Z,-6.80
2022-12-12T21:46:24.332Z,-6.80
2022-12-12T21:49:11.922Z,-6.90
2022-12-12T21:51:40.473Z,-6.90
2022-12-12T21:54:09.608Z,-7.00
2022-12-12T21:56:36.880Z,-7.00
2022-12-12T21:59:04.297Z,-6.90
2022-12-12T22:01:34.469Z,-6.90
2022-12-12T22:04:01.822Z,-6.90
2022-12-12T22:06:34.108Z,-6.90
2022-12-12T22:09:03.946Z,-6.90
2022-12-12T22:11:41.340Z,-6.90
2022-12-12T22:14:18.347Z,-6.90
2022-12-12T22:16:45.394Z,-7.00
2022-12-12T22:19:15.158Z,-7.00
2022-12-12T22:21:45.229Z,-7.00
2022-12-12T22:24:12.060Z,-7.00
2022-12-12T22:26:41.860Z,-7.00
2022-12-12T22:29:12.683Z,-7.00
2022-12-12T22:31:40.811Z,-7.00
2022-12-12T22:34:16.951Z,-7.00
2022-12-12T22:36:45.477Z,-7.00
2022-12-12T22:39:23.380Z,-7.00
2022-12-12T22:41:50.895Z,-7.00
2022-12-12T22:44:19.367Z,-7.00
2022-12-12T22:46:48.380Z,-7.00
2022-12-12T22:49:19.373Z,-7.10
2022-12-12T22:51:47.352Z,-7.10
2022-12-12T22:54:14.480Z,-7.00
2022-12-12T22:56:42.197Z,-7.10
2022-12-12T22:59:11.715Z,-7.10
2022-12-12T23:01:39.048Z,-7.10
2022-12-12T23:04:06.203Z,-7.10
2022-12-12T23:06:35.226Z,-7.10
2022-12-12T23:09:08.021Z,-7.10
2022-12-12T23:11:36.694Z,-7.10
2022-12-12T23:14:09.069Z,-7.10
2022-12-12T23:16:36.363Z,-7.10
2022-12-12T23:19:05.409Z,-7.10
2022-12-12T23:21:32.965Z,-7.20
2022-12-12T23:23:59.827Z,-7.20
2022-12-12T23:26:30.253Z,-7.20
2022-12-12T23:29:00.462Z,-7.20
2022-12-12T23:31:33.005Z,-7.20
2022-12-12T23:34:02.759Z,-7.20
2022-12-12T23:36:30.135Z,-7.30
2022-12-12T23:41:31.336Z,-7.30
2022-12-12T23:43:58.337Z,-7.30
2022-12-12T23:46:29.124Z,-7.40
2022-12-12T23:48:59.908Z,-7.40
2022-12-12T23:51:29.463Z,-7.40
2022-12-12T23:53:58.005Z,-7.40
2022-12-12T23:56:25.881Z,-7.50
2022-12-12T23:58:57.244Z,-7.50
